Time;durP1;ratioP1;P1;durP2;ratioP2;P2;SDS_P1;SDS_P2;PMS_P1;PMS_P2;Temp;Humidity;BMP_temperature;BMP_pressure;BME280_temperature;BME280_humidity;BME280_pressure;Samples;Min_cycle;Max_cycle;Signal;HPM_P1;HPM_P2
2020/12/29 00:00:27;;;;;;;1.35;1.10;;;;;;;;;;6369211;27;20051;-77
2020/12/29 00:03:28;;;;;;;2.17;1.10;;;;;;;;;;6332800;27;20049;-77
2020/12/29 00:06:29;;;;;;;1.50;1.33;;;;;;;;;;6368561;27;20056;-78
2020/12/29 00:09:29;;;;;;;1.17;1.08;;;5.40;85.20;;;;;;6350111;27;20016;-77
2020/12/29 00:12:30;;;;;;;0.77;0.77;;;5.50;78.10;;;;;;6349932;27;20054;-77
2020/12/29 00:15:31;;;;;;;1.15;1.05;;;5.40;81.20;;;;;;6350421;27;20224;-77
2020/12/29 00:18:32;;;;;;;1.30;1.20;;;5.50;83.50;;;;;;6333348;27;20337;-78
2020/12/29 00:21:32;;;;;;;2.35;1.30;;;5.30;83.20;;;;;;6349954;28;20066;-77
2020/12/29 00:24:33;;;;;;;1.55;1.00;;;5.00;84.40;;;;;;6331105;27;20042;-77
2020/12/29 00:27:33;;;;;;;0.90;0.90;;;5.00;85.10;;;;;;6332842;28;20079;-78
2020/12/29 00:30:34;;;;;;;1.48;1.02;;;4.90;85.00;;;;;;6349681;27;20484;-77
2020/12/29 00:33:35;;;;;;;2.25;1.20;;;5.30;84.20;;;;;;6368088;28;20039;-78
2020/12/29 00:36:36;;;;;;;1.17;1.00;;;5.30;84.50;;;;;;6349861;27;20785;-77
2020/12/29 00:39:36;;;;;;;1.35;1.05;;;5.10;81.10;;;;;;6333027;28;20038;-77
2020/12/29 00:42:37;;;;;;;2.05;1.10;;;5.20;80.20;;;;;;6332844;28;20031;-77
2020/12/29 00:45:37;;;;;;;2.42;1.25;;;5.30;80.50;;;;;;6349870;28;20114;-76
2020/12/29 00:48:38;;;;;;;2.30;1.60;;;5.20;79.90;;;;;;6368050;27;20354;-77
2020/12/29 00:51:39;;;;;;;3.22;1.05;;;5.30;74.50;;;;;;6349761;28;20033;-78
2020/12/29 00:54:39;;;;;;;1.52;1.20;;;5.50;74.30;;;;;;6332452;28;20027;-78
2020/12/29 00:57:40;;;;;;;1.40;1.30;;;5.50;76.40;;;;;;6367425;27;20743;-78
2020/12/29 01:00:41;;;;;;;2.65;1.40;;;5.60;76.40;;;;;;6367809;28;20050;-78
2020/12/29 01:03:41;;;;;;;2.08;1.27;;;5.10;78.50;;;;;;6349293;27;20499;-77
2020/12/29 01:06:42;;;;;;;1.48;1.20;;;5.40;81.50;;;;;;6368134;28;20031;-77
2020/12/29 01:09:42;;;;;;;2.65;2.20;;;5.30;82.60;;;;;;6349183;27;20011;-77
2020/12/29 01:12:43;;;;;;;1.85;1.05;;;5.50;83.20;;;;;;6349447;28;20039;-77
2020/12/29 01:15:44;;;;;;;1.48;1.08;;;5.40;82.10;;;;;;6315464;28;20421;-77
2020/12/29 01:18:44;;;;;;;3.10;1.55;;;4.90;80.10;;;;;;6332686;28;20027;-77
2020/12/29 01:21:45;;;;;;;1.98;1.33;;;5.60;81.30;;;;;;6366813;28;20038;-77
2020/12/29 01:24:46;;;;;;;1.52;1.40;;;4.90;81.70;;;;;;6349224;28;20023;-77
2020/12/29 01:27:47;;;;;;;3.15;1.58;;;5.50;80.80;;;;;;6367751;28;20027;-77
2020/12/29 01:30:47;;;;;;;3.38;1.25;;;5.10;84.80;;;;;;6367446;27;20368;-77
2020/12/29 01:33:48;;;;;;;1.92;1.25;;;4.80;85.40;;;;;;6348969;28;20039;-77
2020/12/29 01:36:49;;;;;;;2.80;1.60;;;4.30;85.20;;;;;;6349924;27;20110;-77
2020/12/29 01:39:49;;;;;;;6.80;1.80;;;4.80;88.50;;;;;;6372341;27;20054;-77
2020/12/29 01:42:50;;;;;;;2.17;1.42;;;4.80;88.50;;;;;;6353316;27;20019;-77
2020/12/29 01:45:50;;;;;;;3.63;1.58;;;4.00;97.10;;;;;;6353751;27;20027;-77
2020/12/29 01:48:51;;;;;;;3.75;1.25;;;4.40;89.80;;;;;;6371892;27;20039;-77
2020/12/29 01:51:51;;;;;;;3.47;1.48;;;4.80;90.80;;;;;;6336184;27;20031;-77
2020/12/29 01:54:52;;;;;;;1.67;1.00;;;4.40;90.70;;;;;;6353674;27;20088;-77
2020/12/29 01:57:53;;;;;;;2.53;1.55;;;4.70;90.10;;;;;;6335993;27;20019;-77
2020/12/29 02:00:53;;;;;;;1.17;0.93;;;4.30;90.00;;;;;;6353208;27;20049;-77
2020/12/29 02:03:54;;;;;;;2.55;1.50;;;4.30;90.00;;;;;;6353031;27;20130;-77
2020/12/29 02:06:55;;;;;;;5.32;2.03;;;4.40;90.10;;;;;;6371482;27;20058;-77
2020/12/29 02:09:55;;;;;;;3.33;1.40;;;4.50;90.00;;;;;;6335843;27;20034;-77
2020/12/29 02:12:56;;;;;;;5.63;2.30;;;4.40;88.50;;;;;;6371527;27;20046;-77
2020/12/29 02:15:57;;;;;;;3.47;1.60;;;4.90;87.20;;;;;;6371531;27;20405;-77
2020/12/29 02:18:57;;;;;;;3.50;1.73;;;4.60;87.90;;;;;;6371121;27;20272;-77
2020/12/29 02:21:58;;;;;;;3.75;1.45;;;4.60;86.90;;;;;;6371915;27;20045;-76
2020/12/29 02:25:04;;;;;;;3.70;1.58;;;4.20;99.90;;;;;;6335216;27;20035;-77
2020/12/29 02:28:07;;;;;;;6.00;1.65;;;4.40;99.90;;;;;;6352611;27;20218;-77
2020/12/29 02:31:08;;;;;;;1.77;1.40;;;4.60;86.20;;;;;;6352624;27;20928;-77
2020/12/29 02:34:08;;;;;;;3.45;2.28;;;4.60;94.60;;;;;;6370757;27;20051;-77
2020/12/29 02:37:09;;;;;;;3.85;1.63;;;4.70;93.90;;;;;;6352354;27;20030;-76
2020/12/29 02:40:10;;;;;;;1.77;1.55;;;4.60;99.90;;;;;;6335316;27;20031;-76
2020/12/29 02:43:11;;;;;;;3.20;1.80;;;4.40;94.70;;;;;;6352673;27;20053;-77
2020/12/29 02:46:14;;;;;;;4.03;1.80;;;4.40;99.90;;;;;;6351941;27;20031;-76
2020/12/29 02:49:15;;;;;;;7.60;2.05;;;4.30;97.30;;;;;;6334735;27;20433;-76
2020/12/29 02:52:17;;;;;;;4.10;1.65;;;4.20;99.90;;;;;;6334675;27;20066;-76
2020/12/29 02:55:18;;;;;;;2.15;1.52;;;4.40;99.90;;;;;;6317827;27;20031;-77
2020/12/29 02:58:18;;;;;;;2.85;1.80;;;;;;;;;;6369837;27;20027;-76
2020/12/29 03:01:19;;;;;;;3.10;1.45;;;;;;;;;;6351698;27;20045;-77
2020/12/29 03:04:20;;;;;;;6.10;2.10;;;;;;;;;;6369635;27;20045;-76
2020/12/29 03:07:21;;;;;;;3.35;1.60;;;4.40;99.90;;;;;;6369347;27;20506;-77
2020/12/29 03:10:22;;;;;;;5.47;1.63;;;;;;;;;;6351414;27;20086;-77
2020/12/29 03:13:23;;;;;;;4.10;1.70;;;4.20;99.90;;;;;;6351169;27;20066;-77
2020/12/29 03:16:24;;;;;;;2.33;1.38;;;3.80;95.10;;;;;;6369683;27;20023;-76
2020/12/29 03:19:25;;;;;;;4.07;1.55;;;4.60;95.70;;;;;;6334562;27;20023;-76
2020/12/29 03:22:25;;;;;;;3.40;1.35;;;4.40;90.90;;;;;;6351035;27;20468;-77
2020/12/29 03:25:26;;;;;;;3.25;1.30;;;3.90;91.70;;;;;;6316752;27;20028;-76
2020/12/29 03:28:26;;;;;;;1.95;0.98;;;4.50;92.20;;;;;;6334602;27;20031;-76
2020/12/29 03:31:27;;;;;;;2.30;1.38;;;4.20;90.90;;;;;;6369169;27;20415;-77
2020/12/29 03:34:37;;;;;;;4.85;1.50;;;4.40;88.30;;;;;;6369543;27;20118;-76
2020/12/29 03:37:37;;;;;;;8.18;1.73;;;4.30;88.30;;;;;;6351977;27;20441;-76
2020/12/29 03:40:38;;;;;;;4.22;1.70;;;4.50;87.00;;;;;;6350894;27;20023;-77
2020/12/29 03:43:38;;;;;;;2.67;1.55;;;4.40;88.40;;;;;;6350627;27;20419;-76
2020/12/29 03:46:39;;;;;;;2.85;1.58;;;4.60;90.10;;;;;;6333666;27;20025;-77
2020/12/29 03:49:39;;;;;;;1.65;1.40;;;4.40;89.80;;;;;;6350470;27;20035;-77
2020/12/29 03:52:40;;;;;;;3.25;1.65;;;4.50;89.30;;;;;;6350659;27;20480;-77
2020/12/29 03:55:41;;;;;;;3.40;1.75;;;4.50;89.00;;;;;;6350419;27;20114;-76
2020/12/29 03:58:42;;;;;;;6.22;2.58;;;4.20;94.50;;;;;;6333090;27;20027;-77
2020/12/29 04:01:42;;;;;;;5.47;2.15;;;4.20;87.20;;;;;;6340874;28;20475;-77
2020/12/29 04:04:43;;;;;;;1.65;1.38;;;4.60;86.40;;;;;;6324040;28;20034;-76
2020/12/29 04:07:44;;;;;;;3.63;2.50;;;4.70;86.20;;;;;;6342833;28;20102;-76
2020/12/29 04:10:44;;;;;;;4.03;1.58;;;4.70;87.10;;;;;;6323633;28;20023;-77
2020/12/29 04:13:45;;;;;;;2.97;1.60;;;4.40;86.70;;;;;;6324137;28;20027;-77
2020/12/29 04:16:46;;;;;;;2.95;1.40;;;4.80;87.10;;;;;;6307497;28;20369;-77
2020/12/29 04:19:46;;;;;;;1.73;1.20;;;4.70;86.10;;;;;;6334187;28;20023;-77
2020/12/29 04:22:47;;;;;;;2.22;1.35;;;4.80;85.60;;;;;;6339238;28;20040;-77
2020/12/29 04:25:47;;;;;;;5.65;1.63;;;4.60;86.80;;;;;;6324051;28;20029;-77
2020/12/29 04:28:48;;;;;;;2.35;1.55;;;5.00;85.60;;;;;;6341305;28;20355;-77
2020/12/29 04:31:49;;;;;;;4.80;1.50;;;5.00;85.60;;;;;;6335498;28;20198;-77
2020/12/29 04:34:49;;;;;;;3.88;1.75;;;5.10;84.70;;;;;;6317011;28;20077;-77
2020/12/29 04:37:50;;;;;;;6.47;1.83;;;5.10;83.70;;;;;;6317356;28;20036;-77
2020/12/29 04:40:50;;;;;;;3.63;1.80;;;4.90;84.40;;;;;;6299728;28;20469;-77
2020/12/29 04:43:55;;;;;;;4.05;1.77;;;4.60;83.20;;;;;;6299951;28;20028;-77
2020/12/29 04:46:56;;;;;;;3.35;1.83;;;4.70;82.80;;;;;;6300581;28;20028;-77
2020/12/29 04:49:59;;;;;;;5.57;2.25;;;4.90;84.00;;;;;;6292968;28;20028;-77
2020/12/29 04:53:00;;;;;;;4.57;1.88;;;4.90;83.40;;;;;;6324733;28;20536;-77
2020/12/29 04:56:08;;;;;;;2.67;1.75;;;4.60;81.20;;;;;;6319245;28;20016;-78
2020/12/29 04:59:08;;;;;;;5.15;1.90;;;4.60;79.20;;;;;;6330914;28;20028;-77
2020/12/29 05:02:09;;;;;;;2.70;1.55;;;4.60;82.30;;;;;;6340572;28;20361;-77
2020/12/29 05:05:09;;;;;;;5.93;1.73;;;4.50;93.70;;;;;;6329093;28;20381;-77
2020/12/29 05:08:10;;;;;;;5.32;1.45;;;5.10;82.10;;;;;;6316677;28;20057;-77
2020/12/29 05:11:11;;;;;;;3.83;1.65;;;4.90;80.60;;;;;;6305373;28;20614;-77
2020/12/29 05:14:11;;;;;;;2.90;2.33;;;5.00;80.70;;;;;;6345185;28;20032;-77
2020/12/29 05:17:12;;;;;;;6.95;1.92;;;4.90;80.70;;;;;;6311853;28;20023;-77
2020/12/29 05:20:12;;;;;;;2.97;2.25;;;5.00;81.20;;;;;;6320394;28;20069;-77
2020/12/29 05:23:13;;;;;;;3.80;1.52;;;5.10;82.60;;;;;;6322720;28;20480;-77
2020/12/29 05:26:14;;;;;;;3.10;1.85;;;5.20;81.30;;;;;;6304327;28;20043;-77
2020/12/29 05:29:14;;;;;;;4.03;1.65;;;5.10;81.10;;;;;;6326532;28;20027;-77
2020/12/29 05:32:18;;;;;;;2.55;1.45;;;5.30;81.20;;;;;;6339975;28;20032;-77
2020/12/29 05:35:19;;;;;;;2.45;1.60;;;5.00;81.10;;;;;;6328454;28;20036;-77
2020/12/29 05:38:19;;;;;;;2.55;1.63;;;5.20;81.20;;;;;;6346291;28;20393;-77
2020/12/29 05:41:21;;;;;;;4.95;1.48;;;4.60;92.60;;;;;;6328287;28;20032;-77
2020/12/29 05:44:27;;;;;;;3.08;1.83;;;4.50;93.20;;;;;;6327736;28;20562;-77
2020/12/29 05:47:28;;;;;;;3.22;1.52;;;4.90;95.60;;;;;;6343209;28;20507;-77
2020/12/29 05:50:29;;;;;;;4.55;2.25;;;4.80;92.40;;;;;;6309411;28;20027;-77
2020/12/29 05:53:30;;;;;;;2.75;1.77;;;4.70;92.90;;;;;;6305687;28;20040;-77
2020/12/29 05:56:32;;;;;;;11.55;1.90;;;4.90;87.70;;;;;;6303546;28;20103;-77
2020/12/29 05:59:33;;;;;;;1.42;1.23;;;4.90;90.30;;;;;;6303983;28;20020;-77
2020/12/29 06:02:34;;;;;;;3.40;2.00;;;;;;;;;;6343927;28;20048;-77
2020/12/29 06:05:36;;;;;;;3.40;1.45;;;4.80;91.00;;;;;;6346674;28;20024;-77
2020/12/29 06:08:37;;;;;;;4.05;1.95;;;5.30;91.50;;;;;;6294897;28;20081;-77
2020/12/29 06:11:58;;;;;;;2.25;1.80;;;5.20;79.40;;;;;;6328194;28;20035;-77
2020/12/29 06:14:59;;;;;;;3.88;1.85;;;4.70;98.30;;;;;;6346141;28;20043;-77
2020/12/29 06:18:00;;;;;;;3.25;1.90;;;5.20;93.30;;;;;;6327970;28;20024;-77
2020/12/29 06:21:07;;;;;;;4.43;1.90;;;5.20;84.50;;;;;;6327708;28;20039;-77
2020/12/29 06:24:08;;;;;;;3.03;1.65;;;5.10;83.40;;;;;;6341960;28;20043;-77
2020/12/29 06:27:09;;;;;;;3.15;1.85;;;4.90;82.90;;;;;;6327694;28;20085;-77
2020/12/29 06:30:10;;;;;;;4.43;2.00;;;5.10;83.00;;;;;;6344650;28;20042;-77
2020/12/29 06:33:16;;;;;;;4.05;2.78;;;5.00;83.50;;;;;;6344017;28;20472;-77
2020/12/29 06:36:17;;;;;;;2.78;2.20;;;4.70;84.20;;;;;;6328065;28;20358;-77
2020/12/29 06:39:17;;;;;;;6.10;2.35;;;4.80;85.60;;;;;;6327046;28;20038;-77
2020/12/29 06:42:18;;;;;;;4.75;2.13;;;4.80;85.70;;;;;;6327072;28;20043;-76
2020/12/29 06:45:19;;;;;;;3.05;1.80;;;4.60;87.00;;;;;;6327050;28;20537;-76
2020/12/29 06:48:20;;;;;;;6.57;2.20;;;4.80;87.80;;;;;;6327290;28;20156;-77
2020/12/29 06:51:21;;;;;;;4.15;2.08;;;4.50;88.40;;;;;;6309372;28;20019;-77
2020/12/29 06:54:21;;;;;;;6.82;2.72;;;4.40;95.20;;;;;;6343101;28;20112;-77
2020/12/29 06:57:34;;;;;;;3.92;1.90;;;4.60;85.60;;;;;;6326982;28;20028;-77
2020/12/29 07:00:35;;;;;;;3.25;1.75;;;4.50;95.60;;;;;;6351333;27;20156;-76
2020/12/29 07:03:36;;;;;;;5.78;1.92;;;;;;;;;;6370487;27;20411;-76
2020/12/29 07:06:37;;;;;;;3.70;1.80;;;4.30;92.50;;;;;;6352003;27;20019;-77
2020/12/29 07:09:37;;;;;;;4.18;2.50;;;4.60;85.60;;;;;;6333993;27;20029;-77
2020/12/29 07:12:48;;;;;;;3.25;1.67;;;5.00;86.90;;;;;;6334369;27;20047;-77
2020/12/29 07:15:54;;;;;;;2.55;1.88;;;4.40;84.00;;;;;;6351885;27;20027;-77
2020/12/29 07:19:09;;;;;;;1.67;1.52;;;4.30;82.00;;;;;;6335283;27;20011;-78
2020/12/29 07:22:15;;;;;;;2.75;1.80;;;4.70;85.30;;;;;;6370302;27;20107;-76
2020/12/29 07:25:16;;;;;;;4.50;1.85;;;4.40;82.50;;;;;;6334984;27;20027;-76
2020/12/29 07:32:19;;;;;;;2.88;1.48;;;4.40;82.40;;;;;;6355948;27;20072;-78
2020/12/29 07:35:19;;;;;;;2.40;1.80;;;5.00;84.50;;;;;;6350992;27;20018;-78
2020/12/29 07:38:25;;;;;;;2.80;1.83;;;4.80;84.10;;;;;;6333637;27;20020;-76
2020/12/29 07:41:25;;;;;;;5.65;2.15;;;4.70;84.40;;;;;;6349950;27;20019;-75
2020/12/29 07:44:26;;;;;;;1.95;1.58;;;5.20;83.30;;;;;;6334593;27;20106;-75
2020/12/29 07:47:26;;;;;;;4.03;2.00;;;4.50;82.80;;;;;;6369135;27;20027;-74
2020/12/29 07:50:28;;;;;;;2.90;1.90;;;4.90;83.80;;;;;;6368347;27;20349;-75
2020/12/29 07:53:29;;;;;;;2.53;1.80;;;4.80;84.20;;;;;;6369141;27;20134;-77
2020/12/29 07:56:29;;;;;;;3.58;1.67;;;4.60;93.90;;;;;;6368673;27;20031;-74
2020/12/29 07:59:30;;;;;;;3.47;2.15;;;;;;;;;;6350519;27;20480;-76
2020/12/29 08:02:31;;;;;;;4.70;2.00;;;4.60;79.50;;;;;;6369255;27;20232;-76
2020/12/29 08:05:33;;;;;;;4.35;1.90;;;4.90;82.50;;;;;;6369092;27;20050;-74
2020/12/29 08:08:33;;;;;;;5.95;2.10;;;5.10;81.90;;;;;;6368521;27;20057;-74
2020/12/29 08:11:34;;;;;;;3.60;1.90;;;4.80;82.90;;;;;;6368164;27;20384;-74
2020/12/29 08:14:40;;;;;;;1.73;1.58;;;4.50;99.90;;;;;;6350259;27;20487;-75
2020/12/29 08:17:40;;;;;;;2.13;1.70;;;4.50;81.70;;;;;;6368674;27;20028;-74
2020/12/29 08:20:55;;;;;;;2.72;1.77;;;5.10;82.60;;;;;;6349528;27;20372;-73
2020/12/29 08:23:57;;;;;;;4.15;1.90;;;4.60;82.20;;;;;;6368550;27;20162;-73
2020/12/29 08:26:58;;;;;;;3.30;1.98;;;4.80;83.20;;;;;;6368671;28;20068;-74
2020/12/29 08:29:58;;;;;;;2.40;1.65;;;4.90;82.80;;;;;;6367917;28;20457;-73
2020/12/29 08:33:01;;;;;;;3.20;1.85;;;4.90;83.30;;;;;;6332311;28;20035;-74
2020/12/29 08:36:02;;;;;;;4.65;2.00;;;4.70;82.70;;;;;;6349999;28;20031;-74
2020/12/29 08:39:24;;;;;;;3.85;2.22;;;5.20;81.80;;;;;;6368439;28;20110;-73
2020/12/29 08:42:25;;;;;;;2.95;2.00;;;4.60;79.60;;;;;;6367919;27;20023;-74
2020/12/29 08:45:26;;;;;;;5.03;2.25;;;5.00;82.40;;;;;;6332669;27;20015;-74
2020/12/29 08:48:27;;;;;;;2.67;1.90;;;5.10;82.30;;;;;;6372718;27;20034;-74
2020/12/29 08:51:29;;;;;;;2.53;1.75;;;5.30;81.70;;;;;;6373080;27;20389;-74
2020/12/29 08:54:37;;;;;;;1.98;1.88;;;5.20;80.90;;;;;;6372097;27;20027;-74
2020/12/29 08:57:38;;;;;;;4.93;2.10;;;5.20;80.50;;;;;;6353337;27;20026;-74
2020/12/29 09:00:43;;;;;;;2.00;1.73;;;5.60;81.20;;;;;;6353758;27;20059;-74
2020/12/29 09:03:44;;;;;;;2.80;2.08;;;5.10;93.40;;;;;;6354306;27;20363;-74
2020/12/29 09:06:44;;;;;;;4.07;1.90;;;5.20;80.90;;;;;;6372742;27;20023;-75
2020/12/29 09:09:51;;;;;;;4.80;2.80;;;6.80;82.40;;;;;;6354784;27;20069;-75
2020/12/29 09:12:52;;;;;;;4.93;2.10;;;5.30;80.20;;;;;;6373226;27;20031;-75
2020/12/29 09:15:52;;;;;;;4.25;2.17;;;5.00;80.10;;;;;;6354732;27;20072;-75
2020/12/29 09:18:53;;;;;;;6.25;2.42;;;5.40;79.40;;;;;;6336394;27;20058;-75
2020/12/29 09:22:09;;;;;;;4.10;2.38;;;5.60;78.80;;;;;;6372572;27;20019;-75
2020/12/29 09:25:10;;;;;;;6.55;3.17;;;6.10;79.90;;;;;;6372690;27;20030;-75
2020/12/29 09:28:19;;;;;;;4.30;2.30;;;7.10;88.60;;;;;;6337031;27;20074;-74
2020/12/29 09:31:29;;;;;;;5.70;2.70;;;7.60;74.30;;;;;;6372831;27;20191;-74
2020/12/29 09:34:29;;;;;;;3.08;1.90;;;7.60;75.60;;;;;;6372731;27;20038;-74
2020/12/29 09:37:30;;;;;;;4.47;2.42;;;7.50;76.00;;;;;;6371768;27;20103;-74
2020/12/29 09:40:30;;;;;;;4.05;2.13;;;7.40;74.80;;;;;;6371922;27;20038;-74
2020/12/29 09:43:31;;;;;;;3.17;2.08;;;7.00;76.30;;;;;;6372878;27;20104;-74
2020/12/29 09:46:38;;;;;;;3.17;1.90;;;7.20;75.10;;;;;;6371311;27;20023;-75
2020/12/29 09:49:39;;;;;;;4.50;2.38;;;6.70;76.50;;;;;;6372385;27;20035;-74
2020/12/29 09:52:40;;;;;;;4.03;2.20;;;;;;;;;;6372584;27;20027;-75
2020/12/29 09:55:41;;;;;;;4.03;1.98;;;6.90;73.70;;;;;;6371984;27;20063;-75
2020/12/29 09:58:41;;;;;;;5.85;3.30;;;7.40;74.80;;;;;;6370850;27;20025;-75
2020/12/29 10:01:42;;;;;;;3.45;1.85;;;5.80;73.60;;;;;;6344508;28;20048;-75
2020/12/29 10:04:42;;;;;;;5.85;2.22;;;7.50;90.50;;;;;;6345496;28;20023;-75
2020/12/29 10:07:46;;;;;;;6.70;2.30;;;7.00;73.20;;;;;;6329591;28;20032;-76
2020/12/29 10:10:47;;;;;;;5.72;2.40;;;7.30;76.20;;;;;;6333496;28;20026;-76
2020/12/29 10:13:47;;;;;;;3.22;2.00;;;6.80;76.90;;;;;;6324612;28;20048;-76
2020/12/29 10:16:48;;;;;;;3.80;2.72;;;6.90;73.40;;;;;;6331219;28;20076;-75
2020/12/29 10:19:49;;;;;;;4.22;2.17;;;7.40;72.60;;;;;;6332433;28;20026;-77
2020/12/29 10:22:50;;;;;;;4.68;2.17;;;7.90;70.10;;;;;;6340582;28;20462;-78
2020/12/29 10:25:51;;;;;;;4.95;2.40;;;8.10;70.10;;;;;;6303405;28;20039;-76
2020/12/29 10:28:51;;;;;;;3.75;2.30;;;7.60;68.00;;;;;;6336832;28;20028;-76
2020/12/29 10:31:52;;;;;;;9.48;3.20;;;7.60;89.70;;;;;;6317266;28;20031;-77
2020/12/29 10:34:52;;;;;;;5.20;2.75;;;7.50;72.60;;;;;;6319986;28;20114;-76
2020/12/29 10:37:54;;;;;;;2.95;2.28;;;8.70;69.00;;;;;;6342812;28;20034;-79
2020/12/29 10:40:54;;;;;;;6.55;2.47;;;8.80;66.20;;;;;;6344197;28;20042;-77
2020/12/29 10:43:55;;;;;;;3.50;2.30;;;7.80;68.80;;;;;;6342767;28;20019;-77
2020/12/29 10:46:56;;;;;;;3.10;2.40;;;7.50;70.30;;;;;;6337520;28;20061;-77
2020/12/29 10:49:56;;;;;;;10.68;4.93;;;7.80;71.80;;;;;;6319123;28;20155;-77
2020/12/29 10:52:58;;;;;;;4.90;2.83;;;7.40;72.10;;;;;;6330802;28;20093;-79
2020/12/29 10:55:58;;;;;;;3.72;2.22;;;8.50;72.00;;;;;;6318587;28;20036;-77
2020/12/29 10:58:59;;;;;;;5.03;2.28;;;9.30;83.70;;;;;;6322283;28;20089;-75
2020/12/29 11:02:00;;;;;;;2.55;2.08;;;9.30;66.10;;;;;;6329883;28;20122;-77
2020/12/29 11:05:00;;;;;;;3.10;2.20;;;8.70;94.10;;;;;;6322488;28;20035;-77
2020/12/29 11:08:01;;;;;;;4.43;2.15;;;8.40;93.80;;;;;;6342445;28;20032;-77
2020/12/29 11:11:01;;;;;;;5.07;2.40;;;8.70;94.20;;;;;;6329500;28;20036;-78
2020/12/29 11:14:02;;;;;;;4.85;2.08;;;8.60;68.20;;;;;;6333964;28;20846;-79
2020/12/29 11:17:03;;;;;;;4.07;2.25;;;8.40;94.10;;;;;;6321519;28;20080;-78
2020/12/29 11:20:03;;;;;;;3.53;2.50;;;8.20;93.60;;;;;;6325538;28;20377;-76
2020/12/29 11:23:04;;;;;;;1.92;1.67;;;8.50;91.90;;;;;;6342336;28;20385;-78
2020/12/29 11:26:04;;;;;;;2.63;2.42;;;8.70;83.10;;;;;;6342694;28;20019;-79
2020/12/29 11:29:06;;;;;;;3.58;2.25;;;8.90;66.60;;;;;;6325276;28;20445;-75
2020/12/29 11:32:07;;;;;;;3.57;2.67;;;9.20;63.30;;;;;;6337386;28;20127;-77
2020/12/29 11:35:07;;;;;;;4.50;2.10;;;9.20;64.00;;;;;;6327798;28;20150;-77
2020/12/29 11:38:08;;;;;;;5.18;2.42;;;8.70;65.10;;;;;;6327893;28;20024;-77
2020/12/29 11:41:09;;;;;;;5.15;2.60;;;8.60;66.60;;;;;;6317499;28;20343;-77
2020/12/29 11:44:09;;;;;;;4.28;2.08;;;8.50;67.20;;;;;;6325228;28;20031;-75
2020/12/29 11:47:10;;;;;;;2.70;2.13;;;7.50;87.60;;;;;;6326993;28;20050;-76
2020/12/29 11:50:11;;;;;;;5.50;2.45;;;;;;;;;;6331839;28;20511;-76
2020/12/29 11:53:11;;;;;;;4.47;2.40;;;7.30;66.90;;;;;;6332544;28;20020;-76
2020/12/29 11:56:12;;;;;;;3.47;2.10;;;7.20;71.30;;;;;;6322063;28;20446;-76
2020/12/29 11:59:13;;;;;;;2.33;1.90;;;6.80;84.30;;;;;;6324678;28;20369;-75
2020/12/29 12:02:13;;;;;;;3.22;1.90;;;7.00;72.90;;;;;;6365461;27;20449;-75
2020/12/29 12:05:14;;;;;;;4.45;2.20;;;6.80;72.30;;;;;;6368909;27;20027;-75
2020/12/29 12:08:15;;;;;;;6.40;2.15;;;6.90;70.70;;;;;;6368802;27;20364;-75
2020/12/29 12:11:17;;;;;;;3.78;2.40;;;6.60;75.30;;;;;;6368364;27;20426;-76
2020/12/29 12:14:18;;;;;;;2.33;2.10;;;6.60;73.80;;;;;;6368322;27;20130;-75
2020/12/29 12:17:19;;;;;;;4.63;2.53;;;6.60;73.80;;;;;;6350065;27;20038;-76
2020/12/29 12:20:19;;;;;;;6.57;2.50;;;6.70;73.40;;;;;;6368664;27;20024;-75
2020/12/29 12:23:20;;;;;;;4.70;2.13;;;6.50;72.20;;;;;;6368462;27;20118;-75
2020/12/29 12:26:20;;;;;;;3.88;2.42;;;6.70;73.10;;;;;;6369030;27;20334;-75
2020/12/29 12:29:21;;;;;;;4.78;2.17;;;6.50;72.00;;;;;;6368395;27;20031;-75
2020/12/29 12:32:22;;;;;;;4.30;2.35;;;6.80;71.30;;;;;;6368877;28;20019;-75
2020/12/29 12:35:22;;;;;;;4.20;2.58;;;6.40;89.80;;;;;;6368593;28;20476;-75
2020/12/29 12:38:23;;;;;;;5.88;3.85;;;6.50;71.40;;;;;;6368333;28;20027;-75
2020/12/29 12:41:24;;;;;;;5.70;2.30;;;6.70;72.10;;;;;;6368590;28;20411;-75
2020/12/29 12:44:24;;;;;;;4.00;2.60;;;6.80;72.10;;;;;;6368632;28;20384;-75
2020/12/29 12:47:25;;;;;;;4.13;2.28;;;7.00;70.30;;;;;;6368625;28;20071;-75
2020/12/29 12:50:25;;;;;;;5.45;2.60;;;7.20;70.10;;;;;;6349802;27;20034;-75
2020/12/29 12:53:26;;;;;;;3.80;2.63;;;7.60;68.50;;;;;;6368268;28;20085;-75
2020/12/29 12:56:30;;;;;;;4.88;2.00;;;7.80;66.60;;;;;;6368110;28;20055;-76
2020/12/29 12:59:31;;;;;;;7.65;3.88;;;8.00;62.80;;;;;;6367659;27;20542;-76
2020/12/29 13:02:32;;;;;;;3.50;2.72;;;8.00;61.80;;;;;;6367811;28;20043;-76
2020/12/29 13:05:32;;;;;;;4.05;1.88;;;7.80;65.60;;;;;;6367816;28;20023;-76
2020/12/29 13:08:33;;;;;;;1.80;1.70;;;7.90;65.70;;;;;;6367682;28;20734;-76
2020/12/29 13:11:33;;;;;;;4.18;2.20;;;7.90;65.80;;;;;;6367593;28;20050;-75
2020/12/29 13:14:34;;;;;;;2.75;1.80;;;7.90;64.30;;;;;;6349480;28;20039;-76
2020/12/29 13:17:35;;;;;;;4.10;2.35;;;7.80;64.20;;;;;;6367904;28;20027;-76
2020/12/29 13:20:35;;;;;;;3.60;2.13;;;7.60;64.90;;;;;;6368486;28;20166;-76
2020/12/29 13:23:36;;;;;;;3.50;1.88;;;7.60;66.10;;;;;;6367859;28;20041;-76
2020/12/29 13:26:36;;;;;;;11.75;2.17;;;7.40;64.80;;;;;;6367958;27;20027;-76
2020/12/29 13:29:37;;;;;;;2.25;2.00;;;7.20;65.90;;;;;;6349427;28;20469;-76
2020/12/29 13:32:38;;;;;;;2.80;1.85;;;7.20;66.00;;;;;;6369403;27;20122;-76
2020/12/29 13:35:38;;;;;;;4.10;2.03;;;7.20;66.80;;;;;;6372563;27;20042;-76
2020/12/29 13:38:39;;;;;;;2.85;2.08;;;7.30;67.60;;;;;;6372425;27;20421;-76
2020/12/29 13:41:40;;;;;;;3.85;1.92;;;7.50;66.80;;;;;;6372544;27;20027;-77
2020/12/29 13:44:40;;;;;;;6.50;3.40;;;7.70;66.80;;;;;;6372216;27;20015;-76
2020/12/29 13:47:41;;;;;;;2.97;1.92;;;7.40;66.30;;;;;;6372251;27;20037;-76
2020/12/29 13:50:41;;;;;;;7.43;3.28;;;7.60;64.70;;;;;;6371864;27;20102;-76
2020/12/29 13:53:42;;;;;;;3.97;3.53;;;7.20;63.30;;;;;;6372228;27;20035;-76
2020/12/29 13:56:43;;;;;;;2.95;2.20;;;6.90;83.30;;;;;;6372101;27;20026;-75
2020/12/29 13:59:44;;;;;;;5.03;2.70;;;7.40;65.70;;;;;;6372299;27;20361;-77
2020/12/29 14:03:02;;;;;;;4.88;2.30;;;7.10;67.20;;;;;;6371626;27;20051;-78
2020/12/29 14:06:03;;;;;;;4.32;2.42;;;6.90;83.10;;;;;;6372025;27;20046;-75
2020/12/29 14:09:04;;;;;;;4.45;2.13;;;6.90;65.80;;;;;;6371820;27;20027;-77
2020/12/29 14:12:04;;;;;;;5.07;2.17;;;6.70;66.90;;;;;;6371486;27;20040;-75
2020/12/29 14:15:05;;;;;;;4.68;2.10;;;6.60;68.00;;;;;;6368969;27;20528;-75
2020/12/29 14:18:05;;;;;;;4.85;2.92;;;6.40;68.70;;;;;;6370461;27;20023;-76
2020/12/29 14:21:09;;;;;;;3.30;1.90;;;6.40;69.10;;;;;;6371920;27;20035;-75
2020/12/29 14:24:10;;;;;;;5.85;2.03;;;6.40;69.60;;;;;;6371293;27;20062;-75
2020/12/29 14:27:10;;;;;;;3.65;2.17;;;6.40;70.60;;;;;;6371346;27;20065;-76
2020/12/29 14:30:11;;;;;;;3.53;2.17;;;6.90;71.40;;;;;;6371216;27;20456;-75
2020/12/29 14:33:11;;;;;;;4.82;2.33;;;6.50;71.10;;;;;;6371058;27;20118;-74
2020/12/29 14:36:12;;;;;;;4.18;2.35;;;6.90;71.70;;;;;;6370038;27;20441;-74
2020/12/29 14:39:13;;;;;;;4.75;2.10;;;6.50;71.50;;;;;;6371375;27;20119;-74
2020/12/29 14:42:18;;;;;;;6.85;2.78;;;6.80;70.10;;;;;;6370825;27;20019;-78
2020/12/29 14:45:18;;;;;;;3.00;1.92;;;6.80;72.10;;;;;;6351558;27;20046;-81
2020/12/29 14:48:19;;;;;;;7.03;2.50;;;;;;;;;;6370272;27;20027;-79
2020/12/29 14:51:26;;;;;;;7.70;3.80;;;6.80;75.40;;;;;;6352523;27;20373;-79
2020/12/29 14:54:36;;;;;;;3.28;2.63;;;6.70;65.50;;;;;;6335511;27;20046;-78
2020/12/29 14:57:37;;;;;;;3.50;2.15;;;6.30;86.10;;;;;;6353369;27;20457;-77
2020/12/29 15:00:41;;;;;;;7.53;3.38;;;6.60;71.90;;;;;;6350351;27;20074;-78
2020/12/29 15:03:41;;;;;;;3.90;2.63;;;6.70;71.10;;;;;;6352309;27;20033;-77
2020/12/29 15:06:42;;;;;;;2.85;2.05;;;6.30;72.60;;;;;;6318645;27;20453;-78
2020/12/29 15:09:42;;;;;;;3.75;2.88;;;6.60;81.40;;;;;;6317305;27;20019;-77
2020/12/29 15:12:43;;;;;;;5.70;2.85;;;6.30;82.00;;;;;;6351506;27;20473;-77
2020/12/29 15:15:44;;;;;;;3.88;2.10;;;6.30;82.50;;;;;;6370634;27;20027;-77
2020/12/29 15:18:47;;;;;;;4.45;2.08;;;6.60;82.80;;;;;;6351095;27;20031;-77
2020/12/29 15:21:47;;;;;;;10.20;8.05;;;5.80;81.80;;;;;;6334250;27;20065;-77
2020/12/29 15:24:48;;;;;;;4.72;2.97;;;5.90;83.00;;;;;;6370212;27;20043;-78
2020/12/29 15:27:49;;;;;;;3.88;2.55;;;6.00;83.40;;;;;;6317298;27;20376;-77
2020/12/29 15:30:49;;;;;;;4.32;2.65;;;6.00;83.10;;;;;;6350334;27;20549;-76
2020/12/29 15:33:50;;;;;;;3.92;2.33;;;5.80;94.20;;;;;;6351257;27;20031;-77
2020/12/29 15:36:54;;;;;;;3.35;2.30;;;6.00;83.10;;;;;;6351301;27;20035;-76
2020/12/29 15:39:55;;;;;;;6.47;2.35;;;5.90;82.40;;;;;;6351195;27;20030;-77
2020/12/29 15:42:55;;;;;;;4.40;2.20;;;6.20;82.50;;;;;;6369078;27;20075;-76
2020/12/29 15:45:56;;;;;;;3.35;2.47;;;5.60;99.90;;;;;;6368503;27;20453;-76
2020/12/29 15:48:57;;;;;;;4.95;3.60;;;5.60;99.90;;;;;;6349535;27;20027;-76
2020/12/29 15:51:57;;;;;;;5.82;3.10;;;5.50;94.40;;;;;;6368398;27;20023;-77
2020/12/29 15:54:58;;;;;;;4.57;3.05;;;5.70;99.90;;;;;;6365589;27;20065;-77
2020/12/29 15:57:58;;;;;;;8.55;3.72;;;5.40;99.90;;;;;;6347011;27;20030;-76
2020/12/29 16:00:59;;;;;;;4.45;2.63;;;5.70;99.90;;;;;;6366978;27;20507;-76
2020/12/29 16:04:00;;;;;;;3.53;2.63;;;5.60;99.70;;;;;;6368106;27;20011;-76